»·PEaware :: N799DS KLGB-KSMO

N799DS :: KLGB-KSMO

FLIGHT INFORMATION

Flight Status: Arrived
Operator: Privately registered:
United States
More flights under this callsign
Pilot: Wolfgang B. (15069)
Aircraft: CESSNA 172 SKYHAWK
(C172)
More flights by this aircraft type
Origin: KLGB Long Beach
United States
Destination: KSMO Santa Monica Mun
United States
More flights between these airports :: More routes between these airports
Route: +SLI V8 POXKU V363 BAYJY V186 DARTS
File this flight plan on PilotEdge
Remarks:
Altitude:
(Current/Filed)
6,000ft
Speed:
(Current/Filed)
120kts
Departed: 24-Nov-19 03:02 PM
Arrived: 24-Nov-19 03:44 PM
Distance/Time
Traveled:
19nm/0:42
Distance/Time
To Go:
Arrived

Flight Plot

Page will automatically refresh every two minutes.

Flight plan parsing failed; only flown route is shown


Map Options




Map Legend


Flown Route
Filed Route
Departure Airport
Arrival Airport
Navaid (VOR, NDB)
Fix

Horizontal Profiles

Position Reports

Time Latitude Longitude Heading Altitude Ground
Speed
24-Nov-19 14:13 33.812657 -118.158798 270 50ft 0kts
24-Nov-19 14:14 33.812657 -118.158798 270 50ft 0kts
24-Nov-19 14:15 33.812657 -118.158798 270 50ft 0kts
24-Nov-19 14:16 33.812657 -118.158798 270 50ft 0kts
24-Nov-19 14:17 33.812657 -118.158798 270 50ft 0kts
24-Nov-19 14:18 33.812657 -118.158798 270 50ft 0kts
24-Nov-19 14:19 33.812657 -118.158798 270 50ft 0kts
24-Nov-19 14:20 33.812657 -118.158798 270 50ft 0kts
24-Nov-19 14:21 33.812657 -118.158798 270 50ft 0kts
24-Nov-19 14:22 33.812657 -118.158798 270 50ft 0kts
24-Nov-19 14:23 33.812657 -118.158798 270 50ft 0kts
24-Nov-19 14:24 33.812657 -118.158798 270 50ft 0kts
24-Nov-19 14:25 33.812657 -118.158798 270 50ft 0kts
24-Nov-19 14:26 33.812657 -118.158798 270 50ft 0kts
24-Nov-19 14:27 33.812657 -118.158798 270 50ft 0kts
24-Nov-19 14:28 33.812657 -118.158798 270 50ft 0kts
24-Nov-19 14:29 33.812657 -118.158798 270 50ft 0kts
24-Nov-19 14:30 33.812657 -118.158798 270 50ft 0kts
24-Nov-19 14:31 33.812657 -118.158798 270 50ft 0kts
24-Nov-19 14:32 33.812657 -118.158798 270 50ft 0kts
24-Nov-19 14:33 33.812657 -118.158798 270 50ft 0kts
24-Nov-19 14:34 33.812657 -118.158798 270 50ft 0kts
24-Nov-19 14:35 33.812657 -118.158798 270 50ft 0kts
24-Nov-19 14:36 33.812657 -118.158798 270 50ft 0kts
24-Nov-19 14:37 33.812657 -118.158798 270 50ft 0kts
24-Nov-19 14:38 33.812657 -118.158798 270 50ft 0kts
24-Nov-19 14:39 33.812657 -118.158798 270 50ft 0kts
24-Nov-19 14:40 33.812657 -118.158798 270 50ft 0kts
24-Nov-19 14:41 33.812657 -118.158798 270 50ft 0kts
24-Nov-19 14:42 33.812657 -118.158798 270 50ft 0kts
24-Nov-19 14:43 33.812657 -118.158798 270 50ft 0kts
24-Nov-19 14:44 33.812651 -118.159025 266 50ft 5kts
24-Nov-19 14:45 33.812626 -118.159361 263 50ft 0kts
24-Nov-19 14:46 33.812626 -118.159361 263 50ft 0kts
24-Nov-19 14:47 33.812626 -118.159361 263 50ft 0kts
24-Nov-19 14:48 33.812626 -118.159361 263 50ft 0kts
24-Nov-19 14:49 33.812626 -118.159361 263 50ft 0kts
24-Nov-19 14:50 33.812626 -118.159361 263 50ft 0kts
24-Nov-19 14:51 33.812625 -118.159548 278 50ft 5kts
24-Nov-19 14:52 33.813088 -118.157347 90 48ft 15kts
24-Nov-19 14:53 33.813093 -118.151091 91 39ft 22kts
24-Nov-19 14:54 33.813089 -118.147763 88 35ft 0kts
24-Nov-19 14:55 33.813306 -118.147729 288 35ft 12kts
24-Nov-19 14:56 33.813320 -118.148837 356 37ft 0kts
24-Nov-19 14:57 33.813320 -118.148837 356 37ft 0kts
24-Nov-19 14:58 33.813320 -118.148837 356 37ft 0kts
24-Nov-19 14:59 33.813320 -118.148837 356 37ft 0kts
24-Nov-19 15:00 33.813746 -118.148921 342 37ft 10kts
24-Nov-19 15:01 33.813968 -118.162737 269 443ft 72kts
24-Nov-19 15:02 33.815192 -118.184939 280 1409ft 70kts
24-Nov-19 15:03 33.810024 -118.204589 202 2324ft 79kts
24-Nov-19 15:04 33.788894 -118.212223 201 3193ft 80kts
24-Nov-19 15:05 33.767219 -118.220113 201 4015ft 82kts
24-Nov-19 15:06 33.745309 -118.222063 127 4786ft 86kts
24-Nov-19 15:07 33.748489 -118.195856 67 5522ft 82kts
24-Nov-19 15:08 33.755710 -118.167558 70 6001ft 111kts
24-Nov-19 15:09 33.765249 -118.128410 71 5992ft 126kts
24-Nov-19 15:10 33.775004 -118.088631 71 5990ft 124kts
24-Nov-19 15:11 33.784750 -118.049317 70 5989ft 124kts
24-Nov-19 15:12 33.794737 -118.010785 70 5988ft 124kts
24-Nov-19 15:13 33.804778 -117.972050 70 5988ft 124kts
24-Nov-19 15:14 33.814840 -117.933186 70 5987ft 124kts
24-Nov-19 15:15 33.825021 -117.893831 70 5986ft 124kts
24-Nov-19 15:16 33.834265 -117.858059 71 5986ft 124kts
24-Nov-19 15:17 33.844822 -117.817116 71 5986ft 124kts
24-Nov-19 15:18 33.863916 -117.787134 9 5987ft 122kts
24-Nov-19 15:19 33.898239 -117.784378 1 5986ft 124kts
24-Nov-19 15:20 33.932779 -117.784289 0 5996ft 124kts
24-Nov-19 15:21 33.967159 -117.784828 359 6002ft 123kts
24-Nov-19 15:22 34.000772 -117.787964 324 6005ft 123kts
24-Nov-19 15:23 34.017729 -117.823793 295 6012ft 124kts
24-Nov-19 15:24 34.030782 -117.862358 292 6014ft 123kts
24-Nov-19 15:25 34.043051 -117.901098 291 6014ft 123kts
24-Nov-19 15:26 34.054995 -117.939779 291 6014ft 123kts
24-Nov-19 15:27 34.066925 -117.978529 291 6014ft 123kts
24-Nov-19 15:28 34.078826 -118.017234 291 6013ft 123kts
24-Nov-19 15:29 34.090693 -118.055869 291 6019ft 123kts
24-Nov-19 15:30 34.102410 -118.094070 291 6018ft 123kts
24-Nov-19 15:31 34.114237 -118.132520 289 5754ft 125kts
24-Nov-19 15:32 34.136451 -118.165342 312 5257ft 131kts
24-Nov-19 15:33 34.161526 -118.198003 312 4757ft 133kts
24-Nov-19 15:34 34.163477 -118.240021 262 4323ft 126kts
24-Nov-19 15:35 34.149934 -118.277101 223 4298ft 124kts
24-Nov-19 15:36 34.126033 -118.307394 226 3728ft 126kts
24-Nov-19 15:37 34.104313 -118.336092 226 3036ft 105kts
24-Nov-19 15:38 34.084923 -118.361631 226 2362ft 102kts
24-Nov-19 15:39 34.065915 -118.386664 226 1714ft 100kts
24-Nov-19 15:40 34.047316 -118.411139 227 1088ft 96kts
24-Nov-19 15:41 34.032924 -118.430052 227 612ft 64kts
24-Nov-19 15:42 34.020933 -118.445264 227 249ft 58kts
24-Nov-19 15:43 34.014804 -118.453049 316 135ft 5kts
24-Nov-19 15:44 34.014284 -118.454541 303 132ft 0kts
24-Nov-19 15:45 34.014284 -118.454540 303 132ft 0kts
24-Nov-19 15:46 34.014284 -118.454540 303 132ft 0kts
24-Nov-19 15:47 34.014284 -118.454540 303 132ft 0kts

Navigation Log

Ident Type
Flight plan parsing failed, navigation log unavailable